Time;durP1;ratioP1;P1;durP2;ratioP2;P2;SDS_P1;SDS_P2;PMS_P1;PMS_P2;Temp;Humidity;BMP_temperature;BMP_pressure;BME280_temperature;BME280_humidity;BME280_pressure;Samples;Min_cycle;Max_cycle;Signal;HPM_P1;HPM_P2
2023/06/09 00:01:53;;;;;;;10.67;9.57;;;15.30;99.90;;;;;;5022674;28;20198;-38
2023/06/09 00:04:23;;;;;;;9.90;8.90;;;15.40;99.90;;;;;;5024496;28;20205;-38
2023/06/09 00:06:51;;;;;;;9.00;8.10;;;15.40;99.90;;;;;;5052527;28;20202;-35
2023/06/09 00:09:18;;;;;;;9.40;8.50;;;15.50;99.90;;;;;;5047035;28;20174;-39
2023/06/09 00:11:45;;;;;;;9.47;8.60;;;15.40;99.90;;;;;;5051135;28;20240;-39
2023/06/09 00:14:11;;;;;;;9.13;8.27;;;15.40;99.90;;;;;;5050393;28;20216;-38
2023/06/09 00:16:37;;;;;;;9.73;8.37;;;15.40;99.90;;;;;;5051017;28;20182;-38
2023/06/09 00:19:04;;;;;;;9.73;8.73;;;15.40;99.90;;;;;;5051161;28;20224;-39
2023/06/09 00:21:30;;;;;;;9.27;8.37;;;15.40;99.90;;;;;;5050170;28;20201;-36
2023/06/09 00:23:56;;;;;;;9.60;8.67;;;15.40;99.90;;;;;;5030984;28;20253;-39
2023/06/09 00:26:22;;;;;;;8.67;7.67;;;15.30;99.90;;;;;;5046709;28;20179;-38
2023/06/09 00:28:49;;;;;;;9.23;8.43;;;15.20;99.90;;;;;;5033933;28;20174;-40
2023/06/09 00:31:15;;;;;;;9.50;8.50;;;15.10;99.90;;;;;;5027855;28;20187;-40
2023/06/09 00:33:40;;;;;;;9.03;8.13;;;15.00;99.90;;;;;;5038934;28;20193;-39
2023/06/09 00:36:07;;;;;;;9.50;8.50;;;14.90;99.90;;;;;;5034250;28;20221;-39
2023/06/09 00:38:34;;;;;;;9.50;8.37;;;14.90;99.90;;;;;;5050732;28;20186;-38
2023/06/09 00:41:00;;;;;;;9.03;8.13;;;14.80;99.90;;;;;;5050303;28;20200;-40
2023/06/09 00:43:26;;;;;;;9.33;8.43;;;14.70;99.90;;;;;;5050283;28;20174;-39
2023/06/09 00:45:53;;;;;;;9.47;8.43;;;14.70;99.90;;;;;;5049327;28;20205;-38
2023/06/09 00:48:19;;;;;;;10.10;7.87;;;14.70;99.90;;;;;;5046112;28;20232;-37
2023/06/09 00:50:45;;;;;;;9.03;8.17;;;14.60;99.90;;;;;;5045530;28;20182;-40
2023/06/09 00:53:11;;;;;;;9.73;8.83;;;14.50;99.90;;;;;;5030691;28;20249;-37
2023/06/09 00:55:40;;;;;;;9.93;7.83;;;14.50;99.90;;;;;;5050372;28;20668;-40
2023/06/09 00:58:08;;;;;;;9.20;8.40;;;14.40;99.90;;;;;;5050401;28;20185;-38
2023/06/09 01:00:35;;;;;;;8.90;8.03;;;14.40;99.90;;;;;;5048436;28;20178;-37
2023/06/09 01:03:02;;;;;;;9.20;8.27;;;14.40;99.90;;;;;;5013734;28;20225;-36
2023/06/09 01:05:32;;;;;;;8.73;7.83;;;14.40;99.90;;;;;;5048749;28;20208;-36
2023/06/09 01:08:26;;;;;;;9.47;8.57;;;14.30;99.90;;;;;;5050676;28;20207;-38
2023/06/09 01:11:05;;;;;;;8.67;7.87;;;14.30;99.90;;;;;;5050327;28;20224;-38
2023/06/09 01:13:37;;;;;;;9.20;8.40;;;14.20;99.90;;;;;;5049369;28;20189;-38
2023/06/09 01:16:13;;;;;;;9.63;7.50;;;14.20;99.90;;;;;;5049498;28;20185;-40
2023/06/09 01:18:42;;;;;;;11.27;8.57;;;14.20;99.90;;;;;;5022312;28;20189;-37
2023/06/09 01:21:35;;;;;;;9.83;8.83;;;14.20;99.90;;;;;;5049960;28;20186;-39
2023/06/09 01:24:21;;;;;;;10.00;9.00;;;14.20;99.90;;;;;;5032218;28;20194;-39
2023/06/09 01:26:50;;;;;;;11.13;9.13;;;14.10;99.90;;;;;;5035640;28;20189;-38
2023/06/09 01:29:20;;;;;;;10.43;9.43;;;14.10;99.90;;;;;;5023634;28;20206;-39
2023/06/09 01:31:48;;;;;;;9.70;8.77;;;14.00;99.90;;;;;;5021782;28;20211;-38
2023/06/09 01:34:15;;;;;;;9.77;8.77;;;14.10;99.90;;;;;;5034114;28;20226;-40
2023/06/09 01:36:42;;;;;;;10.37;9.37;;;14.00;99.90;;;;;;5045555;28;20186;-39
2023/06/09 01:39:09;;;;;;;10.10;9.10;;;14.00;99.90;;;;;;5049292;28;20285;-38
2023/06/09 01:41:36;;;;;;;9.57;8.70;;;13.90;99.90;;;;;;5049671;28;20245;-39
2023/06/09 01:44:01;;;;;;;10.27;9.00;;;13.80;99.90;;;;;;5044893;28;20202;-33
2023/06/09 01:46:28;;;;;;;9.77;8.87;;;13.90;99.90;;;;;;5029585;28;20216;-36
2023/06/09 01:49:32;;;;;;;10.43;9.33;;;13.80;99.90;;;;;;5032766;28;20177;-37
2023/06/09 01:52:25;;;;;;;10.73;8.17;;;13.90;99.90;;;;;;5031553;28;20208;-40
2023/06/09 01:55:07;;;;;;;9.17;8.27;;;13.90;99.90;;;;;;4995100;28;20206;-39
2023/06/09 01:57:50;;;;;;;9.33;8.00;;;13.90;99.90;;;;;;5026671;28;20281;-40
2023/06/09 02:00:17;;;;;;;9.57;7.93;;;13.80;99.90;;;;;;5031792;28;20181;-39
2023/06/09 02:02:46;;;;;;;9.67;8.67;;;13.70;99.90;;;;;;5030102;28;20252;-39
2023/06/09 02:05:15;;;;;;;8.70;7.70;;;13.70;99.90;;;;;;5025141;28;20203;-38
2023/06/09 02:07:44;;;;;;;9.17;8.27;;;13.60;99.90;;;;;;5012818;28;20185;-38
2023/06/09 02:10:11;;;;;;;9.50;8.60;;;13.60;99.90;;;;;;5025216;28;20178;-40
2023/06/09 02:12:37;;;;;;;9.43;8.53;;;13.60;99.90;;;;;;5052384;28;20186;-39
2023/06/09 02:15:05;;;;;;;9.73;8.73;;;13.50;99.90;;;;;;5053314;28;20202;-38
2023/06/09 02:17:33;;;;;;;9.87;8.97;;;13.40;99.90;;;;;;5030058;28;20220;-36
2023/06/09 02:19:59;;;;;;;10.20;9.20;;;13.40;99.90;;;;;;5053233;28;20276;-39
2023/06/09 02:22:26;;;;;;;11.53;9.43;;;13.30;99.90;;;;;;5053038;28;20292;-38
2023/06/09 02:24:52;;;;;;;9.33;8.40;;;13.30;99.90;;;;;;5054608;28;20230;-39
2023/06/09 02:27:18;;;;;;;10.53;9.43;;;13.20;99.90;;;;;;5047476;28;20276;-39
2023/06/09 02:29:44;;;;;;;10.50;9.07;;;13.20;99.90;;;;;;5053480;28;20243;-38
2023/06/09 02:32:11;;;;;;;10.03;9.03;;;13.10;99.90;;;;;;5046915;28;20190;-38
2023/06/09 02:34:37;;;;;;;10.03;9.07;;;13.00;99.90;;;;;;5035661;28;20232;-37
2023/06/09 02:37:07;;;;;;;10.60;9.50;;;13.00;99.90;;;;;;5052359;28;20184;-39
2023/06/09 02:39:34;;;;;;;9.93;8.93;;;13.00;99.90;;;;;;5053075;28;20188;-35
2023/06/09 02:42:00;;;;;;;10.27;9.10;;;13.00;99.90;;;;;;5036074;28;20199;-38
2023/06/09 02:44:28;;;;;;;9.93;8.97;;;13.00;99.90;;;;;;5036471;28;20202;-39
2023/06/09 02:46:54;;;;;;;9.73;8.73;;;13.00;99.90;;;;;;5032599;28;20672;-39
2023/06/09 02:49:21;;;;;;;10.30;8.73;;;13.00;99.90;;;;;;5051849;28;20177;-39
2023/06/09 02:51:47;;;;;;;10.57;9.47;;;13.00;99.90;;;;;;5036391;28;20189;-38
2023/06/09 02:54:14;;;;;;;10.23;9.20;;;13.00;99.90;;;;;;5043054;28;20216;-36
2023/06/09 02:56:40;;;;;;;9.30;8.40;;;13.00;99.90;;;;;;5035349;28;20181;-37
2023/06/09 02:59:07;;;;;;;11.57;8.30;;;13.00;99.90;;;;;;5027184;28;20652;-37
2023/06/09 03:01:36;;;;;;;10.17;9.17;;;13.00;99.90;;;;;;5026267;28;20204;-36
2023/06/09 03:04:07;;;;;;;11.10;9.83;;;12.90;99.90;;;;;;5015868;28;20202;-35
2023/06/09 03:06:36;;;;;;;9.73;8.43;;;12.90;99.90;;;;;;5034707;28;20267;-36
2023/06/09 03:09:03;;;;;;;10.23;9.17;;;13.00;99.90;;;;;;5052601;28;20191;-36
2023/06/09 03:11:31;;;;;;;10.40;9.40;;;12.90;99.90;;;;;;5052459;28;20234;-36
2023/06/09 03:13:57;;;;;;;9.83;8.83;;;12.80;99.90;;;;;;5052112;28;20211;-37
2023/06/09 03:16:23;;;;;;;11.43;9.63;;;12.80;99.90;;;;;;5035195;28;20185;-36
2023/06/09 03:18:49;;;;;;;10.03;9.10;;;12.80;99.90;;;;;;5031307;28;20235;-41
2023/06/09 03:21:15;;;;;;;10.50;9.50;;;12.80;99.90;;;;;;5028266;28;20192;-36
2023/06/09 03:23:41;;;;;;;10.50;9.50;;;12.70;99.90;;;;;;5049716;28;20181;-39
2023/06/09 03:26:08;;;;;;;10.00;9.00;;;12.70;99.90;;;;;;5051015;28;20181;-37
2023/06/09 03:28:33;;;;;;;10.27;9.23;;;12.70;99.90;;;;;;5051857;28;20181;-38
2023/06/09 03:30:59;;;;;;;9.90;8.90;;;12.70;99.90;;;;;;5030686;28;20183;-36
2023/06/09 03:33:26;;;;;;;11.03;8.97;;;12.60;99.90;;;;;;5015549;28;20196;-37
2023/06/09 03:35:54;;;;;;;9.23;8.10;;;12.60;99.90;;;;;;5028480;28;20227;-37
2023/06/09 03:38:22;;;;;;;9.30;8.37;;;12.60;99.90;;;;;;5043474;28;20226;-38
2023/06/09 03:40:48;;;;;;;9.87;8.60;;;12.60;99.90;;;;;;5049877;28;20226;-40
2023/06/09 03:43:14;;;;;;;9.63;8.63;;;12.60;99.90;;;;;;5035174;28;20264;-38
2023/06/09 03:45:40;;;;;;;10.00;9.00;;;12.50;99.90;;;;;;5051303;28;20202;-40
2023/06/09 03:48:08;;;;;;;9.73;8.83;;;12.50;99.90;;;;;;5035320;28;20191;-37
2023/06/09 03:50:34;;;;;;;10.00;8.43;;;12.50;99.90;;;;;;5044020;28;20215;-36
2023/06/09 03:53:00;;;;;;;9.03;8.10;;;12.50;99.90;;;;;;5051593;28;20184;-37
2023/06/09 03:55:31;;;;;;;11.83;8.90;;;12.60;99.90;;;;;;5034886;28;20235;-38
2023/06/09 03:57:57;;;;;;;10.20;8.63;;;12.60;99.90;;;;;;5051494;28;20180;-37
2023/06/09 04:00:24;;;;;;;10.33;8.40;;;12.60;99.90;;;;;;5051114;28;20188;-39
2023/06/09 04:02:53;;;;;;;11.13;9.57;;;12.70;99.90;;;;;;5015325;28;20212;-39
2023/06/09 04:05:20;;;;;;;11.83;10.00;;;12.60;99.90;;;;;;5027657;28;20195;-40
2023/06/09 04:07:47;;;;;;;9.90;9.00;;;12.60;99.90;;;;;;5043298;28;20174;-35
2023/06/09 04:10:13;;;;;;;10.50;9.30;;;12.60;99.90;;;;;;5031373;28;20254;-34
2023/06/09 04:12:41;;;;;;;12.03;9.67;;;12.60;99.90;;;;;;5032557;28;20660;-40
2023/06/09 04:15:08;;;;;;;11.03;9.70;;;12.60;99.90;;;;;;5050863;28;20208;-41
2023/06/09 04:17:37;;;;;;;10.33;9.20;;;12.70;99.90;;;;;;5043629;28;20201;-38
2023/06/09 04:20:07;;;;;;;10.13;9.13;;;12.70;99.90;;;;;;5030796;28;20268;-41
2023/06/09 04:22:34;;;;;;;10.13;9.10;;;12.70;99.90;;;;;;5033910;28;20228;-39
2023/06/09 04:25:01;;;;;;;10.40;9.33;;;12.80;99.90;;;;;;5051129;28;20196;-37
2023/06/09 04:27:29;;;;;;;10.03;9.07;;;12.90;99.90;;;;;;5031663;28;20209;-34
2023/06/09 04:29:57;;;;;;;9.93;9.00;;;12.90;99.90;;;;;;5027666;28;20178;-38
2023/06/09 04:32:23;;;;;;;10.17;9.17;;;13.00;99.90;;;;;;5018083;28;20190;-38
2023/06/09 04:34:52;;;;;;;10.93;9.47;;;13.00;99.90;;;;;;5021145;28;20231;-36
2023/06/09 04:37:19;;;;;;;10.23;9.13;;;13.10;99.90;;;;;;5049393;28;20184;-38
2023/06/09 04:39:47;;;;;;;10.70;9.47;;;13.10;99.90;;;;;;5050229;28;20212;-36
2023/06/09 04:42:19;;;;;;;10.17;9.17;;;13.20;99.90;;;;;;5050530;28;20204;-38
2023/06/09 04:44:47;;;;;;;10.23;9.03;;;13.20;99.90;;;;;;5025857;28;20200;-38
2023/06/09 04:47:20;;;;;;;10.70;9.60;;;13.30;99.90;;;;;;5030041;28;20192;-39
2023/06/09 04:49:49;;;;;;;10.03;8.90;;;13.20;99.90;;;;;;5028410;28;20185;-37
2023/06/09 04:52:19;;;;;;;10.63;9.53;;;13.10;99.90;;;;;;5034082;28;20192;-36
2023/06/09 04:54:45;;;;;;;10.60;9.60;;;13.20;99.90;;;;;;5042237;28;20295;-37
2023/06/09 04:57:11;;;;;;;12.30;10.10;;;13.20;99.90;;;;;;5032800;28;20268;-39
2023/06/09 04:59:41;;;;;;;10.10;9.10;;;13.20;99.90;;;;;;5033726;28;20188;-39
2023/06/09 05:02:10;;;;;;;10.07;9.07;;;13.20;99.90;;;;;;5040522;28;20204;-37
2023/06/09 05:04:36;;;;;;;11.93;9.83;;;13.30;99.90;;;;;;5033306;28;20210;-37
2023/06/09 05:07:03;;;;;;;10.60;9.33;;;13.30;99.90;;;;;;5049107;28;20181;-36
2023/06/09 05:09:29;;;;;;;10.97;9.97;;;13.50;99.90;;;;;;5049976;28;20238;-39
2023/06/09 05:11:55;;;;;;;10.30;9.23;;;13.60;99.90;;;;;;5049386;28;20184;-39
2023/06/09 05:14:21;;;;;;;10.77;9.77;;;13.70;99.90;;;;;;5049420;28;20241;-37
2023/06/09 05:16:47;;;;;;;12.00;9.40;;;13.80;99.90;;;;;;5033266;28;20193;-40
2023/06/09 05:19:15;;;;;;;10.80;9.80;;;13.90;99.90;;;;;;5030762;28;20193;-39
2023/06/09 05:21:45;;;;;;;12.30;11.03;;;14.00;99.90;;;;;;5051135;28;20208;-36
2023/06/09 05:24:11;;;;;;;11.53;10.43;;;14.10;99.90;;;;;;5049919;28;20201;-38
2023/06/09 05:26:37;;;;;;;11.83;10.40;;;14.10;99.90;;;;;;5048938;28;20181;-39
2023/06/09 05:29:03;;;;;;;13.73;10.50;;;14.10;99.90;;;;;;5033508;28;20181;-39
2023/06/09 05:31:29;;;;;;;12.57;9.70;;;14.20;99.90;;;;;;5040528;28;20190;-37
2023/06/09 05:33:56;;;;;;;11.70;9.93;;;14.40;99.90;;;;;;5034727;28;20236;-39
2023/06/09 05:36:22;;;;;;;11.03;10.03;;;14.60;99.90;;;;;;5033394;28;20213;-39
2023/06/09 05:38:51;;;;;;;11.70;10.53;;;14.70;99.90;;;;;;5032602;28;20177;-35
2023/06/09 05:41:16;;;;;;;11.30;10.17;;;14.70;99.90;;;;;;5048420;28;20220;-37
2023/06/09 05:43:42;;;;;;;11.40;10.30;;;14.80;99.90;;;;;;5049457;28;20197;-37
2023/06/09 05:46:08;;;;;;;11.77;10.63;;;14.90;99.90;;;;;;5049653;28;20182;-41
2023/06/09 05:48:34;;;;;;;11.63;10.53;;;15.00;99.90;;;;;;5049347;28;20217;-38
2023/06/09 05:51:00;;;;;;;11.53;10.43;;;15.10;99.90;;;;;;5049622;28;20209;-40
2023/06/09 05:53:27;;;;;;;14.20;11.27;;;15.20;99.90;;;;;;5045275;28;20189;-35
2023/06/09 05:55:54;;;;;;;11.97;10.87;;;15.30;99.90;;;;;;5049002;28;20216;-38
2023/06/09 05:58:19;;;;;;;11.87;10.67;;;15.40;99.90;;;;;;5030623;28;20182;-41
2023/06/09 06:00:46;;;;;;;12.63;11.50;;;15.50;99.90;;;;;;5045574;28;20189;-40
2023/06/09 06:03:12;;;;;;;11.47;10.43;;;15.60;99.90;;;;;;5030551;28;20214;-38
2023/06/09 06:05:38;;;;;;;12.37;11.07;;;15.70;99.90;;;;;;5047085;28;20208;-38
2023/06/09 06:08:06;;;;;;;12.27;11.07;;;15.90;99.90;;;;;;5047860;28;20197;-38
2023/06/09 06:10:32;;;;;;;11.77;10.67;;;16.10;99.90;;;;;;5029775;28;20186;-39
2023/06/09 06:13:01;;;;;;;11.93;10.73;;;16.20;99.90;;;;;;5050465;28;20188;-39
2023/06/09 06:15:27;;;;;;;11.93;10.83;;;16.40;99.90;;;;;;5032594;28;20210;-39
2023/06/09 06:17:53;;;;;;;11.70;10.63;;;16.60;99.90;;;;;;5031812;28;20196;-38
2023/06/09 06:20:18;;;;;;;12.00;10.80;;;16.60;99.90;;;;;;5031364;28;20220;-40
2023/06/09 06:22:44;;;;;;;10.87;9.77;;;16.80;99.90;;;;;;5045240;28;20301;-39
2023/06/09 06:25:13;;;;;;;11.73;10.63;;;17.00;99.90;;;;;;5029129;28;20285;-38
2023/06/09 06:27:42;;;;;;;11.83;10.67;;;17.10;99.90;;;;;;5027747;28;20182;-40
2023/06/09 06:30:12;;;;;;;12.97;10.87;;;17.40;99.90;;;;;;5021986;28;20256;-38
2023/06/09 06:32:47;;;;;;;12.70;10.30;;;17.60;99.90;;;;;;5035009;28;20186;-36
2023/06/09 06:35:29;;;;;;;12.00;10.77;;;17.70;99.90;;;;;;5024647;28;20228;-40
2023/06/09 06:37:56;;;;;;;10.90;9.85;;;17.90;99.90;;;;;;5037972;28;20182;-39
2023/06/09 06:40:23;;;;;;;10.50;9.50;;;18.20;99.90;;;;;;5023565;28;20186;-40
2023/06/09 06:42:49;;;;;;;12.60;11.40;;;18.40;99.90;;;;;;5041512;28;20210;-40
2023/06/09 06:45:23;;;;;;;11.90;10.80;;;18.60;99.90;;;;;;5039965;28;20248;-39
2023/06/09 06:47:49;;;;;;;11.05;9.95;;;18.80;99.90;;;;;;5045014;28;20204;-40
2023/06/09 06:50:15;;;;;;;12.55;11.25;;;18.90;99.90;;;;;;5039917;28;20174;-39
2023/06/09 06:52:42;;;;;;;19.38;10.57;;;19.10;99.90;;;;;;5043879;28;20190;-38
2023/06/09 06:55:08;;;;;;;15.85;10.70;;;19.30;99.90;;;;;;5030749;28;20198;-42
2023/06/09 06:57:35;;;;;;;18.60;11.98;;;19.50;99.90;;;;;;5039070;28;20189;-40
2023/06/09 07:00:09;;;;;;;14.02;9.55;;;19.60;99.90;;;;;;5042488;28;20189;-37
2023/06/09 07:02:35;;;;;;;12.43;9.40;;;19.70;99.90;;;;;;5040904;28;20202;-39
2023/06/09 07:05:03;;;;;;;9.07;8.18;;;19.90;99.90;;;;;;5022580;28;20197;-39
2023/06/09 07:07:29;;;;;;;9.32;8.43;;;20.10;99.90;;;;;;5043297;28;20268;-39
2023/06/09 07:09:55;;;;;;;10.95;9.10;;;20.20;99.90;;;;;;5032906;28;20178;-40
2023/06/09 07:12:21;;;;;;;9.50;8.60;;;20.30;99.90;;;;;;5043095;28;20259;-38
2023/06/09 07:14:49;;;;;;;8.13;7.43;;;20.40;99.90;;;;;;5034883;28;20217;-40
2023/06/09 07:17:17;;;;;;;8.05;7.35;;;20.60;99.90;;;;;;5042811;28;20186;-40
2023/06/09 07:19:44;;;;;;;7.97;7.28;;;20.70;99.90;;;;;;5038500;28;20194;-36
2023/06/09 07:22:10;;;;;;;7.30;6.55;;;20.80;99.90;;;;;;5050118;28;20219;-39
2023/06/09 07:24:36;;;;;;;7.70;7.00;;;21.00;99.90;;;;;;5052186;28;20202;-41
2023/06/09 07:27:02;;;;;;;7.55;6.85;;;21.10;99.90;;;;;;5030613;28;20335;-41
2023/06/09 07:29:27;;;;;;;17.55;8.75;;;21.00;99.90;;;;;;5032309;28;20178;-37
2023/06/09 07:31:53;;;;;;;9.75;7.65;;;21.20;99.90;;;;;;5053314;28;20190;-37
2023/06/09 07:34:19;;;;;;;7.53;6.82;;;21.40;99.90;;;;;;5026761;28;20222;-40
2023/06/09 07:36:50;;;;;;;14.57;8.10;;;21.50;99.90;;;;;;5020864;28;20191;-40
2023/06/09 07:39:16;;;;;;;7.93;6.97;;;21.60;99.90;;;;;;5041072;28;20192;-41
2023/06/09 07:41:42;;;;;;;10.45;7.13;;;21.70;99.90;;;;;;5025562;28;20297;-39
2023/06/09 07:44:09;;;;;;;9.82;6.35;;;21.90;99.90;;;;;;5034530;28;20265;-40
2023/06/09 07:46:35;;;;;;;6.38;5.80;;;22.00;99.90;;;;;;5042215;28;20178;-39
2023/06/09 07:49:01;;;;;;;6.93;5.82;;;22.10;99.90;;;;;;5044959;28;20257;-39
2023/06/09 07:51:29;;;;;;;6.95;6.18;;;22.20;99.90;;;;;;5049831;28;20188;-39
2023/06/09 07:53:55;;;;;;;5.88;5.38;;;22.40;99.90;;;;;;5050546;28;20212;-40
2023/06/09 07:56:23;;;;;;;5.72;5.28;;;22.50;99.90;;;;;;5053436;28;20173;-42
2023/06/09 07:58:51;;;;;;;7.63;6.20;;;22.60;99.90;;;;;;5040512;28;20253;-39
2023/06/09 08:01:19;;;;;;;6.25;5.65;;;22.70;99.90;;;;;;5022261;28;20213;-42
2023/06/09 08:03:45;;;;;;;6.22;5.70;;;22.90;99.90;;;;;;5060559;28;20174;-40
2023/06/09 08:06:11;;;;;;;7.22;5.70;;;22.90;99.90;;;;;;5066418;28;20184;-41
2023/06/09 08:08:37;;;;;;;5.60;5.03;;;23.00;99.90;;;;;;5057923;28;20226;-40
2023/06/09 08:11:03;;;;;;;5.45;4.97;;;23.00;99.90;;;;;;5072184;28;20177;-40
2023/06/09 08:13:30;;;;;;;11.68;7.28;;;23.20;99.90;;;;;;5057246;28;20181;-41
2023/06/09 08:15:57;;;;;;;6.43;5.50;;;23.40;99.90;;;;;;5083039;28;20201;-41
2023/06/09 08:18:25;;;;;;;17.15;9.68;;;23.40;99.90;;;;;;5059510;28;20277;-42
2023/06/09 08:20:53;;;;;;;9.13;6.68;;;23.60;99.90;;;;;;5056368;28;20186;-41
2023/06/09 08:23:22;;;;;;;7.05;6.10;;;23.90;99.90;;;;;;5058566;28;20205;-42
2023/06/09 08:25:53;;;;;;;6.70;6.10;;;24.00;99.90;;;;;;5058568;28;20683;-40
2023/06/09 08:28:21;;;;;;;6.25;5.65;;;24.00;99.90;;;;;;5048720;28;20192;-42
2023/06/09 08:30:47;;;;;;;5.68;5.18;;;24.10;99.90;;;;;;5075838;28;20174;-41
2023/06/09 08:33:13;;;;;;;6.03;5.45;;;24.30;99.90;;;;;;5063385;28;20185;-42
2023/06/09 08:35:38;;;;;;;5.85;5.35;;;24.50;99.90;;;;;;5055604;28;20200;-42
2023/06/09 08:38:04;;;;;;;13.45;7.88;;;24.60;99.90;;;;;;5065180;28;20192;-42
2023/06/09 08:40:31;;;;;;;5.78;5.28;;;24.50;99.90;;;;;;5056374;28;20264;-42
2023/06/09 08:43:00;;;;;;;17.17;8.75;;;24.70;99.90;;;;;;5056692;28;20216;-42
2023/06/09 08:45:29;;;;;;;14.23;8.50;;;24.80;99.90;;;;;;5056186;28;20251;-42
2023/06/09 08:47:59;;;;;;;5.47;4.97;;;24.90;99.90;;;;;;5072554;28;20189;-40
2023/06/09 08:50:29;;;;;;;6.43;5.50;;;24.90;99.90;;;;;;5080156;28;20201;-41
2023/06/09 08:52:56;;;;;;;5.70;5.20;;;24.90;99.90;;;;;;5070194;28;20217;-42
2023/06/09 08:55:22;;;;;;;222.18;189.75;;;25.10;99.90;;;;;;5064781;28;20205;-42
2023/06/09 08:57:50;;;;;;;12.32;10.13;;;25.40;99.90;;;;;;5073798;28;20264;-42
2023/06/09 09:00:17;;;;;;;7.60;5.90;;;25.50;99.90;;;;;;5062382;28;20178;-40
2023/06/09 09:02:43;;;;;;;19.15;17.35;;;25.70;99.90;;;;;;5051828;28;20193;-42
2023/06/09 09:05:10;;;;;;;35.20;19.92;;;25.90;99.90;;;;;;5058002;28;20202;-40
2023/06/09 09:07:36;;;;;;;4.85;4.45;;;26.00;99.90;;;;;;5054805;28;20189;-42
2023/06/09 09:10:02;;;;;;;4.72;4.10;;;26.10;99.90;;;;;;5058938;28;20174;-42
2023/06/09 09:12:45;;;;;;;4.45;4.05;;;26.30;99.90;;;;;;5062733;28;20186;-42
2023/06/09 09:15:10;;;;;;;4.43;4.03;;;26.60;99.90;;;;;;5041927;28;20220;-42
2023/06/09 09:17:39;;;;;;;4.47;4.07;;;26.70;99.90;;;;;;5077024;28;20635;-42
2023/06/09 09:20:08;;;;;;;3.88;3.47;;;26.80;99.90;;;;;;5059978;28;20221;-38
2023/06/09 09:22:48;;;;;;;4.18;3.78;;;27.00;99.90;;;;;;5066766;28;20205;-42
2023/06/09 09:25:28;;;;;;;3.90;3.60;;;27.30;99.90;;;;;;5052272;28;20251;-42
2023/06/09 09:28:09;;;;;;;4.63;4.22;;;27.40;99.90;;;;;;5066608;28;20176;-42
2023/06/09 09:30:48;;;;;;;5.05;4.47;;;27.70;99.90;;;;;;5076835;28;20173;-42
2023/06/09 09:33:29;;;;;;;77.78;71.03;;;27.80;99.90;;;;;;5077874;28;20177;-43
2023/06/09 09:35:58;;;;;;;7.72;7.07;;;27.80;99.90;;;;;;5078841;28;20197;-41
2023/06/09 09:38:29;;;;;;;4.72;4.22;;;27.90;99.90;;;;;;5068649;28;20189;-40
2023/06/09 09:41:00;;;;;;;4.15;3.85;;;28.00;99.90;;;;;;5061873;28;20181;-40
2023/06/09 09:43:28;;;;;;;3.70;3.40;;;28.00;99.90;;;;;;5070437;28;20247;-40
2023/06/09 09:45:56;;;;;;;4.43;4.03;;;28.00;99.90;;;;;;5069602;28;20216;-40
2023/06/09 09:48:24;;;;;;;4.03;3.63;;;28.20;99.90;;;;;;5069842;28;20177;-41
2023/06/09 09:50:54;;;;;;;3.97;3.67;;;28.10;99.90;;;;;;5066386;28;20257;-42
2023/06/09 09:53:27;;;;;;;4.80;4.40;;;28.40;99.90;;;;;;5054999;28;20209;-42
2023/06/09 09:55:54;;;;;;;4.97;4.43;;;28.60;99.90;;;;;;5055215;28;20218;-41
2023/06/09 09:58:29;;;;;;;4.88;4.30;;;28.80;99.90;;;;;;5053159;28;20188;-43
2023/06/09 10:00:57;;;;;;;5.05;4.55;;;28.60;99.90;;;;;;5051104;28;20184;-42
2023/06/09 10:03:25;;;;;;;4.97;4.38;;;28.70;99.90;;;;;;5070615;28;20204;-41
2023/06/09 10:05:53;;;;;;;4.55;4.15;;;28.40;99.90;;;;;;5070116;28;20197;-41
2023/06/09 10:08:26;;;;;;;4.82;4.40;;;28.50;99.90;;;;;;5078483;28;20177;-43
2023/06/09 10:10:56;;;;;;;4.72;4.40;;;28.60;99.90;;;;;;5068359;28;20185;-43
2023/06/09 10:13:26;;;;;;;4.63;4.22;;;28.80;99.90;;;;;;5051615;28;20188;-44
2023/06/09 10:15:56;;;;;;;170.05;154.85;;;28.90;99.90;;;;;;5085125;28;20279;-44
2023/06/09 10:18:24;;;;;;;7.35;6.65;;;28.80;99.90;;;;;;5078404;28;20188;-43
2023/06/09 10:20:55;;;;;;;4.65;4.25;;;28.80;99.90;;;;;;5067691;28;20283;-44
2023/06/09 10:23:21;;;;;;;4.63;4.22;;;28.80;99.90;;;;;;5065654;28;20193;-44
2023/06/09 10:25:49;;;;;;;4.55;4.15;;;29.00;99.90;;;;;;5070431;28;20200;-43
2023/06/09 10:28:16;;;;;;;4.70;4.30;;;29.20;99.90;;;;;;5059625;28;20177;-44
2023/06/09 10:30:43;;;;;;;4.32;4.03;;;29.30;99.90;;;;;;5050525;28;20184;-43
2023/06/09 10:33:25;;;;;;;6.03;4.97;;;29.30;99.90;;;;;;5071485;28;20192;-44
2023/06/09 10:36:00;;;;;;;5.60;4.18;;;29.40;99.90;;;;;;5075807;28;20240;-43
2023/06/09 10:38:38;;;;;;;10.38;5.57;;;29.50;99.90;;;;;;5071976;28;20174;-43
2023/06/09 10:41:15;;;;;;;7.43;5.00;;;29.20;99.90;;;;;;5064778;28;20192;-44
2023/06/09 10:44:06;;;;;;;6.38;5.78;;;29.40;99.90;;;;;;5054243;28;20192;-43
2023/06/09 10:46:47;;;;;;;13.32;10.57;;;29.40;99.90;;;;;;5084736;28;20181;-41
2023/06/09 10:49:25;;;;;;;5.43;4.75;;;29.60;99.90;;;;;;5065787;28;20185;-41
2023/06/09 10:51:52;;;;;;;5.70;5.15;;;29.80;99.90;;;;;;5054560;28;20260;-42
2023/06/09 10:54:19;;;;;;;5.13;4.72;;;29.80;99.90;;;;;;5069719;28;20224;-40
2023/06/09 10:56:52;;;;;;;5.10;4.22;;;29.90;99.90;;;;;;5072799;28;20690;-41
2023/06/09 10:59:27;;;;;;;4.85;4.45;;;29.80;99.90;;;;;;5084332;28;20189;-43
2023/06/09 11:02:05;;;;;;;4.40;4.05;;;29.80;99.90;;;;;;5072689;28;20675;-42
2023/06/09 11:04:37;;;;;;;6.28;4.28;;;30.00;99.90;;;;;;5055038;28;20189;-40
2023/06/09 11:07:13;;;;;;;5.05;4.18;;;30.10;99.90;;;;;;5084914;28;20177;-43
2023/06/09 11:09:40;;;;;;;4.40;3.97;;;30.40;99.90;;;;;;5071994;28;20177;-43
2023/06/09 11:12:08;;;;;;;4.70;3.83;;;30.40;99.90;;;;;;5056898;28;20185;-42
2023/06/09 11:14:46;;;;;;;4.28;3.88;;;30.30;99.90;;;;;;5068955;28;20307;-42
2023/06/09 11:17:16;;;;;;;4.60;4.20;;;30.20;99.80;;;;;;5066361;28;20189;-42
2023/06/09 11:19:42;;;;;;;4.30;3.90;;;30.00;99.90;;;;;;5072141;28;20177;-42
2023/06/09 11:22:12;;;;;;;4.40;4.10;;;30.00;99.90;;;;;;5083416;28;20278;-42
2023/06/09 11:24:53;;;;;;;4.30;4.00;;;30.30;99.60;;;;;;5071544;28;20194;-42
2023/06/09 11:27:21;;;;;;;4.45;4.05;;;30.50;99.20;;;;;;5075383;28;20189;-42
2023/06/09 11:30:07;;;;;;;4.72;4.32;;;30.70;99.90;;;;;;5072436;28;20169;-42
2023/06/09 11:32:45;;;;;;;4.55;4.25;;;30.80;97.80;;;;;;5064239;28;20193;-42
2023/06/09 11:35:31;;;;;;;4.90;4.40;;;30.60;97.70;;;;;;5063176;28;20253;-40
2023/06/09 11:38:05;;;;;;;4.15;3.75;;;30.20;97.10;;;;;;5067011;28;20197;-42
2023/06/09 11:40:49;;;;;;;4.75;3.75;;;30.20;95.30;;;;;;5059205;28;20190;-42
2023/06/09 11:43:15;;;;;;;4.38;3.97;;;30.10;96.90;;;;;;5075979;28;20200;-42
2023/06/09 11:45:41;;;;;;;4.32;4.03;;;30.00;96.70;;;;;;5067590;28;20196;-42
2023/06/09 11:48:07;;;;;;;4.90;4.40;;;29.80;96.40;;;;;;5053921;28;20189;-40
2023/06/09 11:50:45;;;;;;;4.32;3.72;;;29.40;96.20;;;;;;5066197;28;20182;-42
2023/06/09 11:53:20;;;;;;;4.30;3.90;;;29.20;97.20;;;;;;5071437;28;20181;-43
2023/06/09 11:55:46;;;;;;;4.32;3.80;;;29.30;97.70;;;;;;5071477;28;20222;-43
2023/06/09 11:58:15;;;;;;;4.18;3.85;;;29.60;97.70;;;;;;5088535;28;20185;-40
2023/06/09 12:00:42;;;;;;;3.85;3.55;;;29.90;98.40;;;;;;5075300;28;20173;-43
2023/06/09 12:03:10;;;;;;;3.75;3.45;;;30.00;96.50;;;;;;5061399;28;20201;-43
2023/06/09 12:05:36;;;;;;;3.67;3.38;;;29.90;97.30;;;;;;5072674;28;20200;-40
2023/06/09 12:08:02;;;;;;;4.28;3.90;;;29.70;97.30;;;;;;5073281;28;20169;-40
2023/06/09 12:10:30;;;;;;;4.20;3.80;;;29.40;96.90;;;;;;5073532;28;20192;-40
2023/06/09 12:12:57;;;;;;;4.38;3.97;;;29.30;97.90;;;;;;5067148;28;20178;-42
2023/06/09 12:15:25;;;;;;;3.85;3.55;;;29.40;97.60;;;;;;5073203;28;20205;-40
2023/06/09 12:17:54;;;;;;;3.95;3.65;;;29.30;97.60;;;;;;5072162;28;20185;-38
2023/06/09 12:20:27;;;;;;;4.18;3.78;;;29.20;98.00;;;;;;5071754;28;20178;-40
2023/06/09 12:22:55;;;;;;;4.45;3.83;;;29.50;97.90;;;;;;5058009;28;20205;-40
2023/06/09 12:25:32;;;;;;;4.00;3.70;;;29.90;98.10;;;;;;5051143;28;20248;-42
2023/06/09 12:28:16;;;;;;;4.10;3.80;;;30.20;96.90;;;;;;5071015;28;20181;-39
2023/06/09 12:30:47;;;;;;;4.60;4.20;;;30.60;96.20;;;;;;5070078;28;20178;-42
2023/06/09 12:33:24;;;;;;;3.90;3.60;;;30.70;96.70;;;;;;5065249;28;20268;-40
2023/06/09 12:35:54;;;;;;;3.80;3.50;;;30.90;95.10;;;;;;5073068;28;20197;-43
2023/06/09 12:38:22;;;;;;;3.92;3.63;;;31.10;94.90;;;;;;5062137;28;20190;-41
2023/06/09 12:40:53;;;;;;;4.18;3.60;;;31.20;95.80;;;;;;5069702;28;20319;-40
2023/06/09 12:43:21;;;;;;;4.03;3.72;;;31.50;95.10;;;;;;5070607;28;20205;-42
2023/06/09 12:45:49;;;;;;;4.03;3.72;;;31.50;94.50;;;;;;5070362;28;20201;-42
2023/06/09 12:48:16;;;;;;;3.83;3.53;;;31.70;94.30;;;;;;5078420;28;20188;-40
2023/06/09 12:50:43;;;;;;;3.83;3.35;;;32.00;93.20;;;;;;5053918;28;20268;-42